sensor_id;sensor_type;location;lat;lon;timestamp;P1;durP1;ratioP1;P2;durP2;ratioP2
28335;SDS011;15592;53.656;7.276;2022-10-16T00:00:34;10.98;;;2.33;;
28335;SDS011;15592;53.656;7.276;2022-10-16T00:03:02;6.80;;;2.20;;
28335;SDS011;15592;53.656;7.276;2022-10-16T00:05:29;12.85;;;2.47;;
28335;SDS011;15592;53.656;7.276;2022-10-16T00:07:54;16.67;;;2.53;;
28335;SDS011;15592;53.656;7.276;2022-10-16T00:10:20;6.90;;;2.33;;
28335;SDS011;15592;53.656;7.276;2022-10-16T00:12:46;8.43;;;2.28;;
28335;SDS011;15592;53.656;7.276;2022-10-16T00:15:12;9.52;;;2.40;;
28335;SDS011;15592;53.656;7.276;2022-10-16T00:17:38;10.73;;;2.80;;
28335;SDS011;15592;53.656;7.276;2022-10-16T00:20:04;8.75;;;2.30;;
28335;SDS011;15592;53.656;7.276;2022-10-16T00:22:30;5.72;;;2.72;;
28335;SDS011;15592;53.656;7.276;2022-10-16T00:24:56;6.35;;;2.30;;
28335;SDS011;15592;53.656;7.276;2022-10-16T00:27:21;11.13;;;2.30;;
28335;SDS011;15592;53.656;7.276;2022-10-16T00:29:51;10.25;;;2.60;;
28335;SDS011;15592;53.656;7.276;2022-10-16T00:32:17;8.00;;;2.40;;
28335;SDS011;15592;53.656;7.276;2022-10-16T00:34:44;7.68;;;2.22;;
28335;SDS011;15592;53.656;7.276;2022-10-16T00:37:10;6.20;;;2.33;;
28335;SDS011;15592;53.656;7.276;2022-10-16T00:39:36;7.07;;;2.53;;
28335;SDS011;15592;53.656;7.276;2022-10-16T00:42:02;9.20;;;2.35;;
28335;SDS011;15592;53.656;7.276;2022-10-16T00:44:44;7.68;;;2.08;;
28335;SDS011;15592;53.656;7.276;2022-10-16T00:50:11;9.57;;;2.67;;
28335;SDS011;15592;53.656;7.276;2022-10-16T00:52:44;7.68;;;2.10;;
28335;SDS011;15592;53.656;7.276;2022-10-16T00:55:13;10.70;;;2.50;;
28335;SDS011;15592;53.656;7.276;2022-10-16T00:57:39;5.43;;;2.10;;
28335;SDS011;15592;53.656;7.276;2022-10-16T01:00:07;9.45;;;2.63;;
28335;SDS011;15592;53.656;7.276;2022-10-16T01:02:34;5.60;;;1.92;;
28335;SDS011;15592;53.656;7.276;2022-10-16T01:05:00;8.20;;;2.55;;
28335;SDS011;15592;53.656;7.276;2022-10-16T01:13:09;8.90;;;2.10;;
28335;SDS011;15592;53.656;7.276;2022-10-16T01:16:31;8.63;;;2.22;;
28335;SDS011;15592;53.656;7.276;2022-10-16T01:21:40;8.65;;;2.00;;
28335;SDS011;15592;53.656;7.276;2022-10-16T01:34:54;6.30;;;1.98;;
28335;SDS011;15592;53.656;7.276;2022-10-16T01:37:35;6.07;;;1.92;;
28335;SDS011;15592;53.656;7.276;2022-10-16T01:40:11;8.45;;;2.50;;
28335;SDS011;15592;53.656;7.276;2022-10-16T01:42:40;11.23;;;2.47;;
28335;SDS011;15592;53.656;7.276;2022-10-16T01:45:09;10.73;;;2.42;;
28335;SDS011;15592;53.656;7.276;2022-10-16T01:47:38;7.95;;;2.20;;
28335;SDS011;15592;53.656;7.276;2022-10-16T01:50:06;8.27;;;2.47;;
28335;SDS011;15592;53.656;7.276;2022-10-16T01:52:34;8.57;;;2.30;;
28335;SDS011;15592;53.656;7.276;2022-10-16T01:55:04;8.07;;;2.40;;
28335;SDS011;15592;53.656;7.276;2022-10-16T01:57:32;7.32;;;2.58;;
28335;SDS011;15592;53.656;7.276;2022-10-16T02:00:03;9.33;;;2.23;;
28335;SDS011;15592;53.656;7.276;2022-10-16T02:02:32;7.88;;;2.47;;
28335;SDS011;15592;53.656;7.276;2022-10-16T02:05:08;10.80;;;2.30;;
28335;SDS011;15592;53.656;7.276;2022-10-16T02:07:41;11.10;;;2.45;;
28335;SDS011;15592;53.656;7.276;2022-10-16T02:10:07;4.32;;;1.85;;
28335;SDS011;15592;53.656;7.276;2022-10-16T02:12:33;9.77;;;2.47;;
28335;SDS011;15592;53.656;7.276;2022-10-16T02:15:04;7.60;;;2.10;;
28335;SDS011;15592;53.656;7.276;2022-10-16T02:17:31;6.82;;;2.38;;
28335;SDS011;15592;53.656;7.276;2022-10-16T02:19:57;7.80;;;2.10;;
28335;SDS011;15592;53.656;7.276;2022-10-16T02:22:28;6.57;;;2.03;;
28335;SDS011;15592;53.656;7.276;2022-10-16T02:24:59;9.27;;;2.25;;
28335;SDS011;15592;53.656;7.276;2022-10-16T02:27:33;6.40;;;1.80;;
28335;SDS011;15592;53.656;7.276;2022-10-16T02:30:08;10.50;;;2.40;;
28335;SDS011;15592;53.656;7.276;2022-10-16T02:32:45;9.35;;;1.83;;
28335;SDS011;15592;53.656;7.276;2022-10-16T02:35:15;8.35;;;2.13;;
28335;SDS011;15592;53.656;7.276;2022-10-16T02:37:42;8.18;;;2.42;;
28335;SDS011;15592;53.656;7.276;2022-10-16T02:40:09;5.72;;;2.10;;
28335;SDS011;15592;53.656;7.276;2022-10-16T02:42:37;6.78;;;1.90;;
28335;SDS011;15592;53.656;7.276;2022-10-16T02:45:05;6.03;;;2.28;;
28335;SDS011;15592;53.656;7.276;2022-10-16T02:47:32;6.55;;;2.10;;
28335;SDS011;15592;53.656;7.276;2022-10-16T02:49:58;7.07;;;2.22;;
28335;SDS011;15592;53.656;7.276;2022-10-16T02:52:24;8.13;;;2.28;;
28335;SDS011;15592;53.656;7.276;2022-10-16T02:54:49;8.13;;;2.42;;
28335;SDS011;15592;53.656;7.276;2022-10-16T02:57:15;7.93;;;2.40;;
28335;SDS011;15592;53.656;7.276;2022-10-16T02:59:41;14.07;;;2.53;;
28335;SDS011;15592;53.656;7.276;2022-10-16T03:02:06;8.57;;;2.70;;
28335;SDS011;15592;53.656;7.276;2022-10-16T03:04:32;6.00;;;2.65;;
28335;SDS011;15592;53.656;7.276;2022-10-16T03:06:58;6.60;;;2.20;;
28335;SDS011;15592;53.656;7.276;2022-10-16T03:09:23;6.22;;;2.33;;
28335;SDS011;15592;53.656;7.276;2022-10-16T03:11:49;6.22;;;2.22;;
28335;SDS011;15592;53.656;7.276;2022-10-16T03:14:14;5.70;;;2.50;;
28335;SDS011;15592;53.656;7.276;2022-10-16T03:16:40;7.90;;;2.53;;
28335;SDS011;15592;53.656;7.276;2022-10-16T03:19:06;7.28;;;2.13;;
28335;SDS011;15592;53.656;7.276;2022-10-16T03:21:31;7.70;;;2.47;;
28335;SDS011;15592;53.656;7.276;2022-10-16T03:23:57;7.90;;;2.80;;
28335;SDS011;15592;53.656;7.276;2022-10-16T03:26:23;6.78;;;2.20;;
28335;SDS011;15592;53.656;7.276;2022-10-16T03:28:48;6.53;;;2.50;;
28335;SDS011;15592;53.656;7.276;2022-10-16T03:31:14;5.15;;;2.10;;
28335;SDS011;15592;53.656;7.276;2022-10-16T03:33:39;4.25;;;1.95;;
28335;SDS011;15592;53.656;7.276;2022-10-16T03:36:05;7.38;;;2.40;;
28335;SDS011;15592;53.656;7.276;2022-10-16T03:38:31;4.40;;;1.98;;
28335;SDS011;15592;53.656;7.276;2022-10-16T03:40:57;8.02;;;2.22;;
28335;SDS011;15592;53.656;7.276;2022-10-16T03:43:22;4.70;;;2.30;;
28335;SDS011;15592;53.656;7.276;2022-10-16T03:45:49;6.13;;;2.28;;
28335;SDS011;15592;53.656;7.276;2022-10-16T03:48:16;5.05;;;2.20;;
28335;SDS011;15592;53.656;7.276;2022-10-16T03:50:42;6.88;;;2.55;;
28335;SDS011;15592;53.656;7.276;2022-10-16T03:53:08;4.18;;;2.60;;
28335;SDS011;15592;53.656;7.276;2022-10-16T03:55:34;7.60;;;2.83;;
28335;SDS011;15592;53.656;7.276;2022-10-16T03:57:59;3.60;;;2.28;;
28335;SDS011;15592;53.656;7.276;2022-10-16T04:00:25;6.00;;;2.80;;
28335;SDS011;15592;53.656;7.276;2022-10-16T04:02:51;5.78;;;2.63;;
28335;SDS011;15592;53.656;7.276;2022-10-16T04:05:17;8.18;;;2.35;;
28335;SDS011;15592;53.656;7.276;2022-10-16T04:07:42;5.43;;;2.20;;
28335;SDS011;15592;53.656;7.276;2022-10-16T04:10:08;9.77;;;2.50;;
28335;SDS011;15592;53.656;7.276;2022-10-16T04:12:34;7.53;;;2.95;;
28335;SDS011;15592;53.656;7.276;2022-10-16T04:14:59;5.57;;;2.53;;
28335;SDS011;15592;53.656;7.276;2022-10-16T04:17:25;7.80;;;2.85;;
28335;SDS011;15592;53.656;7.276;2022-10-16T04:19:50;6.75;;;2.70;;
28335;SDS011;15592;53.656;7.276;2022-10-16T04:22:16;6.40;;;2.75;;
28335;SDS011;15592;53.656;7.276;2022-10-16T04:24:42;5.85;;;2.70;;
28335;SDS011;15592;53.656;7.276;2022-10-16T04:27:07;6.35;;;2.70;;
28335;SDS011;15592;53.656;7.276;2022-10-16T04:29:33;4.63;;;2.70;;
28335;SDS011;15592;53.656;7.276;2022-10-16T04:31:58;6.85;;;2.60;;
28335;SDS011;15592;53.656;7.276;2022-10-16T04:34:24;7.43;;;2.95;;
28335;SDS011;15592;53.656;7.276;2022-10-16T04:36:50;6.63;;;2.90;;
28335;SDS011;15592;53.656;7.276;2022-10-16T04:39:15;7.13;;;3.00;;
28335;SDS011;15592;53.656;7.276;2022-10-16T04:41:41;6.03;;;3.08;;
28335;SDS011;15592;53.656;7.276;2022-10-16T04:44:07;7.50;;;2.85;;
28335;SDS011;15592;53.656;7.276;2022-10-16T04:46:33;6.00;;;2.88;;
28335;SDS011;15592;53.656;7.276;2022-10-16T04:48:59;7.43;;;3.10;;
28335;SDS011;15592;53.656;7.276;2022-10-16T04:51:24;5.65;;;2.78;;
28335;SDS011;15592;53.656;7.276;2022-10-16T04:53:51;5.90;;;2.70;;
28335;SDS011;15592;53.656;7.276;2022-10-16T04:56:17;4.82;;;3.00;;
28335;SDS011;15592;53.656;7.276;2022-10-16T04:58:42;4.80;;;2.60;;
28335;SDS011;15592;53.656;7.276;2022-10-16T05:01:08;8.02;;;2.90;;
28335;SDS011;15592;53.656;7.276;2022-10-16T05:03:34;5.90;;;2.83;;
28335;SDS011;15592;53.656;7.276;2022-10-16T05:05:59;8.43;;;3.35;;
28335;SDS011;15592;53.656;7.276;2022-10-16T05:08:25;4.88;;;3.20;;
28335;SDS011;15592;53.656;7.276;2022-10-16T05:10:50;5.85;;;2.92;;
28335;SDS011;15592;53.656;7.276;2022-10-16T05:13:16;3.72;;;2.55;;
28335;SDS011;15592;53.656;7.276;2022-10-16T05:15:42;6.90;;;2.80;;
28335;SDS011;15592;53.656;7.276;2022-10-16T05:18:13;5.10;;;2.95;;
28335;SDS011;15592;53.656;7.276;2022-10-16T05:20:38;9.93;;;3.72;;
28335;SDS011;15592;53.656;7.276;2022-10-16T05:23:04;7.63;;;3.00;;
28335;SDS011;15592;53.656;7.276;2022-10-16T05:25:30;8.45;;;3.13;;
28335;SDS011;15592;53.656;7.276;2022-10-16T05:27:55;7.88;;;3.30;;
28335;SDS011;15592;53.656;7.276;2022-10-16T05:30:21;10.20;;;2.72;;
28335;SDS011;15592;53.656;7.276;2022-10-16T05:32:50;5.28;;;2.70;;
28335;SDS011;15592;53.656;7.276;2022-10-16T05:35:17;11.30;;;3.25;;
28335;SDS011;15592;53.656;7.276;2022-10-16T05:37:43;5.43;;;3.03;;
28335;SDS011;15592;53.656;7.276;2022-10-16T05:40:09;4.38;;;2.40;;
28335;SDS011;15592;53.656;7.276;2022-10-16T05:42:35;6.80;;;3.08;;
28335;SDS011;15592;53.656;7.276;2022-10-16T05:45:01;5.47;;;2.50;;
28335;SDS011;15592;53.656;7.276;2022-10-16T05:47:26;6.93;;;2.45;;
28335;SDS011;15592;53.656;7.276;2022-10-16T05:49:52;3.72;;;2.47;;
28335;SDS011;15592;53.656;7.276;2022-10-16T05:52:18;4.50;;;2.35;;
28335;SDS011;15592;53.656;7.276;2022-10-16T05:54:44;7.47;;;3.25;;
28335;SDS011;15592;53.656;7.276;2022-10-16T05:57:09;7.43;;;2.80;;
28335;SDS011;15592;53.656;7.276;2022-10-16T05:59:35;6.10;;;2.70;;
28335;SDS011;15592;53.656;7.276;2022-10-16T06:02:01;6.18;;;2.65;;
28335;SDS011;15592;53.656;7.276;2022-10-16T06:04:26;8.90;;;3.45;;
28335;SDS011;15592;53.656;7.276;2022-10-16T06:06:52;7.32;;;2.35;;
28335;SDS011;15592;53.656;7.276;2022-10-16T06:09:18;5.35;;;2.45;;
28335;SDS011;15592;53.656;7.276;2022-10-16T06:11:43;6.30;;;2.40;;
28335;SDS011;15592;53.656;7.276;2022-10-16T06:14:09;4.80;;;2.42;;
28335;SDS011;15592;53.656;7.276;2022-10-16T06:16:35;6.18;;;2.13;;
28335;SDS011;15592;53.656;7.276;2022-10-16T06:19:02;6.70;;;2.17;;
28335;SDS011;15592;53.656;7.276;2022-10-16T06:21:31;8.27;;;2.67;;
28335;SDS011;15592;53.656;7.276;2022-10-16T06:23:57;7.88;;;2.50;;
28335;SDS011;15592;53.656;7.276;2022-10-16T06:26:27;4.80;;;2.35;;
28335;SDS011;15592;53.656;7.276;2022-10-16T06:28:54;5.80;;;2.20;;
28335;SDS011;15592;53.656;7.276;2022-10-16T06:31:21;6.00;;;1.90;;
28335;SDS011;15592;53.656;7.276;2022-10-16T06:33:50;10.20;;;2.00;;
28335;SDS011;15592;53.656;7.276;2022-10-16T06:36:16;6.65;;;2.63;;
28335;SDS011;15592;53.656;7.276;2022-10-16T06:38:42;5.45;;;2.08;;
28335;SDS011;15592;53.656;7.276;2022-10-16T06:41:13;7.50;;;2.47;;
28335;SDS011;15592;53.656;7.276;2022-10-16T06:43:40;5.68;;;2.58;;
28335;SDS011;15592;53.656;7.276;2022-10-16T06:46:06;6.50;;;2.30;;
28335;SDS011;15592;53.656;7.276;2022-10-16T06:48:34;4.40;;;2.03;;
28335;SDS011;15592;53.656;7.276;2022-10-16T06:53:28;7.28;;;2.40;;
28335;SDS011;15592;53.656;7.276;2022-10-16T06:55:56;9.63;;;2.80;;
28335;SDS011;15592;53.656;7.276;2022-10-16T06:58:21;13.15;;;2.75;;
28335;SDS011;15592;53.656;7.276;2022-10-16T07:00:48;6.35;;;2.70;;
28335;SDS011;15592;53.656;7.276;2022-10-16T07:03:14;6.47;;;2.78;;
28335;SDS011;15592;53.656;7.276;2022-10-16T07:05:43;7.63;;;3.00;;
28335;SDS011;15592;53.656;7.276;2022-10-16T07:08:09;6.63;;;2.70;;
28335;SDS011;15592;53.656;7.276;2022-10-16T07:10:34;12.95;;;3.33;;
28335;SDS011;15592;53.656;7.276;2022-10-16T07:13:00;8.32;;;3.08;;
28335;SDS011;15592;53.656;7.276;2022-10-16T07:15:26;6.82;;;2.80;;
28335;SDS011;15592;53.656;7.276;2022-10-16T07:17:52;9.68;;;3.30;;
28335;SDS011;15592;53.656;7.276;2022-10-16T07:20:18;5.60;;;2.78;;
28335;SDS011;15592;53.656;7.276;2022-10-16T07:22:44;7.68;;;2.60;;
28335;SDS011;15592;53.656;7.276;2022-10-16T07:25:10;8.90;;;3.03;;
28335;SDS011;15592;53.656;7.276;2022-10-16T07:27:36;8.60;;;3.40;;
28335;SDS011;15592;53.656;7.276;2022-10-16T07:30:03;10.07;;;3.38;;
28335;SDS011;15592;53.656;7.276;2022-10-16T07:32:29;9.68;;;3.13;;
28335;SDS011;15592;53.656;7.276;2022-10-16T07:34:56;8.25;;;3.15;;
28335;SDS011;15592;53.656;7.276;2022-10-16T07:37:22;8.25;;;3.22;;
28335;SDS011;15592;53.656;7.276;2022-10-16T07:39:47;9.75;;;3.58;;
28335;SDS011;15592;53.656;7.276;2022-10-16T07:42:13;8.20;;;3.35;;
28335;SDS011;15592;53.656;7.276;2022-10-16T07:44:39;6.68;;;3.50;;
28335;SDS011;15592;53.656;7.276;2022-10-16T07:47:06;8.15;;;3.38;;
28335;SDS011;15592;53.656;7.276;2022-10-16T07:49:32;9.90;;;3.58;;
28335;SDS011;15592;53.656;7.276;2022-10-16T07:51:57;11.32;;;3.60;;
28335;SDS011;15592;53.656;7.276;2022-10-16T07:54:23;6.35;;;3.10;;
28335;SDS011;15592;53.656;7.276;2022-10-16T07:56:49;11.93;;;3.97;;
28335;SDS011;15592;53.656;7.276;2022-10-16T07:59:14;8.75;;;3.40;;
28335;SDS011;15592;53.656;7.276;2022-10-16T08:01:40;11.98;;;3.70;;
28335;SDS011;15592;53.656;7.276;2022-10-16T08:04:07;11.07;;;3.17;;
28335;SDS011;15592;53.656;7.276;2022-10-16T08:06:37;5.47;;;3.08;;
28335;SDS011;15592;53.656;7.276;2022-10-16T08:09:04;7.85;;;3.13;;
28335;SDS011;15592;53.656;7.276;2022-10-16T08:11:31;12.65;;;3.63;;
28335;SDS011;15592;53.656;7.276;2022-10-16T08:13:57;8.80;;;3.22;;
28335;SDS011;15592;53.656;7.276;2022-10-16T08:16:22;11.10;;;3.70;;
28335;SDS011;15592;53.656;7.276;2022-10-16T08:18:48;8.85;;;3.83;;
28335;SDS011;15592;53.656;7.276;2022-10-16T08:21:16;12.20;;;3.70;;
28335;SDS011;15592;53.656;7.276;2022-10-16T08:23:43;9.93;;;3.42;;
28335;SDS011;15592;53.656;7.276;2022-10-16T08:26:09;13.65;;;3.65;;
28335;SDS011;15592;53.656;7.276;2022-10-16T08:28:36;8.20;;;3.20;;
28335;SDS011;15592;53.656;7.276;2022-10-16T08:31:09;8.00;;;3.28;;
28335;SDS011;15592;53.656;7.276;2022-10-16T08:33:40;7.68;;;3.25;;
28335;SDS011;15592;53.656;7.276;2022-10-16T08:36:09;9.85;;;2.95;;
28335;SDS011;15592;53.656;7.276;2022-10-16T08:38:35;8.07;;;3.28;;
28335;SDS011;15592;53.656;7.276;2022-10-16T08:49:16;8.05;;;3.20;;
28335;SDS011;15592;53.656;7.276;2022-10-16T08:51:42;7.03;;;2.83;;
28335;SDS011;15592;53.656;7.276;2022-10-16T08:54:30;9.63;;;2.83;;
28335;SDS011;15592;53.656;7.276;2022-10-16T08:56:57;10.13;;;3.33;;
28335;SDS011;15592;53.656;7.276;2022-10-16T08:59:32;7.47;;;3.13;;
28335;SDS011;15592;53.656;7.276;2022-10-16T09:01:58;11.30;;;2.70;;
28335;SDS011;15592;53.656;7.276;2022-10-16T09:12:37;7.40;;;2.88;;
28335;SDS011;15592;53.656;7.276;2022-10-16T09:15:21;7.30;;;2.70;;
28335;SDS011;15592;53.656;7.276;2022-10-16T09:23:16;10.75;;;3.40;;
28335;SDS011;15592;53.656;7.276;2022-10-16T09:25:52;8.60;;;3.38;;
28335;SDS011;15592;53.656;7.276;2022-10-16T09:28:19;7.50;;;3.50;;
28335;SDS011;15592;53.656;7.276;2022-10-16T09:30:45;8.35;;;3.40;;
28335;SDS011;15592;53.656;7.276;2022-10-16T09:33:13;10.93;;;3.03;;
28335;SDS011;15592;53.656;7.276;2022-10-16T09:35:40;7.50;;;2.88;;
28335;SDS011;15592;53.656;7.276;2022-10-16T09:38:09;8.30;;;3.20;;
28335;SDS011;15592;53.656;7.276;2022-10-16T09:40:53;15.73;;;3.35;;
28335;SDS011;15592;53.656;7.276;2022-10-16T09:46:33;7.68;;;2.80;;
28335;SDS011;15592;53.656;7.276;2022-10-16T09:49:22;9.65;;;3.17;;
28335;SDS011;15592;53.656;7.276;2022-10-16T09:54:27;8.60;;;2.90;;
28335;SDS011;15592;53.656;7.276;2022-10-16T09:57:03;7.32;;;2.70;;
28335;SDS011;15592;53.656;7.276;2022-10-16T09:59:30;10.65;;;2.97;;
28335;SDS011;15592;53.656;7.276;2022-10-16T10:02:00;8.95;;;2.78;;
28335;SDS011;15592;53.656;7.276;2022-10-16T10:04:37;9.43;;;2.90;;
28335;SDS011;15592;53.656;7.276;2022-10-16T10:07:05;10.07;;;2.63;;
28335;SDS011;15592;53.656;7.276;2022-10-16T10:09:42;10.57;;;2.88;;
28335;SDS011;15592;53.656;7.276;2022-10-16T10:14:50;18.50;;;3.03;;
28335;SDS011;15592;53.656;7.276;2022-10-16T10:17:21;9.48;;;2.70;;
28335;SDS011;15592;53.656;7.276;2022-10-16T10:19:58;9.48;;;2.88;;
28335;SDS011;15592;53.656;7.276;2022-10-16T10:30:24;11.77;;;3.08;;
28335;SDS011;15592;53.656;7.276;2022-10-16T10:35:56;12.15;;;2.88;;
28335;SDS011;15592;53.656;7.276;2022-10-16T10:46:18;9.15;;;2.88;;
28335;SDS011;15592;53.656;7.276;2022-10-16T10:51:29;14.80;;;3.30;;
28335;SDS011;15592;53.656;7.276;2022-10-16T10:54:15;9.57;;;2.88;;
28335;SDS011;15592;53.656;7.276;2022-10-16T10:56:57;10.30;;;2.85;;
28335;SDS011;15592;53.656;7.276;2022-10-16T11:05:58;17.27;;;3.40;;
28335;SDS011;15592;53.656;7.276;2022-10-16T11:08:53;14.20;;;2.83;;
28335;SDS011;15592;53.656;7.276;2022-10-16T11:11:23;15.40;;;2.75;;
28335;SDS011;15592;53.656;7.276;2022-10-16T11:14:14;9.25;;;2.45;;
28335;SDS011;15592;53.656;7.276;2022-10-16T11:19:32;15.65;;;3.00;;
28335;SDS011;15592;53.656;7.276;2022-10-16T11:25:34;23.65;;;3.45;;
28335;SDS011;15592;53.656;7.276;2022-10-16T11:28:19;11.55;;;2.90;;
28335;SDS011;15592;53.656;7.276;2022-10-16T11:31:24;13.15;;;2.72;;
28335;SDS011;15592;53.656;7.276;2022-10-16T11:33:49;13.05;;;2.50;;
28335;SDS011;15592;53.656;7.276;2022-10-16T11:36:36;9.02;;;2.30;;
28335;SDS011;15592;53.656;7.276;2022-10-16T11:50:17;6.80;;;2.00;;
28335;SDS011;15592;53.656;7.276;2022-10-16T11:55:46;10.20;;;2.50;;
28335;SDS011;15592;53.656;7.276;2022-10-16T12:03:47;15.02;;;2.65;;
28335;SDS011;15592;53.656;7.276;2022-10-16T12:06:22;13.20;;;3.13;;
28335;SDS011;15592;53.656;7.276;2022-10-16T12:08:58;16.17;;;3.00;;
28335;SDS011;15592;53.656;7.276;2022-10-16T12:14:59;15.32;;;3.47;;
28335;SDS011;15592;53.656;7.276;2022-10-16T12:17:46;10.00;;;2.78;;
28335;SDS011;15592;53.656;7.276;2022-10-16T12:19:57;10.82;;;2.20;;
28335;SDS011;15592;53.656;7.276;2022-10-16T12:22:24;9.10;;;2.45;;
28335;SDS011;15592;53.656;7.276;2022-10-16T12:24:54;10.20;;;2.40;;
28335;SDS011;15592;53.656;7.276;2022-10-16T12:37:07;10.80;;;2.65;;
28335;SDS011;15592;53.656;7.276;2022-10-16T12:39:40;11.57;;;2.65;;
28335;SDS011;15592;53.656;7.276;2022-10-16T12:42:22;11.00;;;2.72;;
28335;SDS011;15592;53.656;7.276;2022-10-16T12:47:53;7.63;;;2.33;;
28335;SDS011;15592;53.656;7.276;2022-10-16T12:52:52;14.73;;;3.10;;
28335;SDS011;15592;53.656;7.276;2022-10-16T12:55:18;10.75;;;2.65;;
28335;SDS011;15592;53.656;7.276;2022-10-16T13:00:38;6.28;;;1.80;;
28335;SDS011;15592;53.656;7.276;2022-10-16T13:03:30;6.93;;;2.05;;
28335;SDS011;15592;53.656;7.276;2022-10-16T13:14:58;9.10;;;1.98;;
28335;SDS011;15592;53.656;7.276;2022-10-16T13:17:40;7.72;;;1.73;;
28335;SDS011;15592;53.656;7.276;2022-10-16T13:20:42;10.82;;;2.45;;
28335;SDS011;15592;53.656;7.276;2022-10-16T13:23:24;7.45;;;2.10;;
28335;SDS011;15592;53.656;7.276;2022-10-16T13:28:21;7.50;;;2.17;;
28335;SDS011;15592;53.656;7.276;2022-10-16T13:30:52;8.73;;;2.03;;
28335;SDS011;15592;53.656;7.276;2022-10-16T13:33:30;10.82;;;2.30;;
28335;SDS011;15592;53.656;7.276;2022-10-16T13:35:59;7.88;;;2.00;;
28335;SDS011;15592;53.656;7.276;2022-10-16T13:38:30;7.40;;;1.90;;
28335;SDS011;15592;53.656;7.276;2022-10-16T13:41:01;8.02;;;1.90;;
28335;SDS011;15592;53.656;7.276;2022-10-16T13:46:37;6.50;;;1.67;;
28335;SDS011;15592;53.656;7.276;2022-10-16T13:49:12;7.50;;;1.75;;
28335;SDS011;15592;53.656;7.276;2022-10-16T13:51:40;9.93;;;1.83;;
28335;SDS011;15592;53.656;7.276;2022-10-16T13:54:09;6.35;;;1.70;;
28335;SDS011;15592;53.656;7.276;2022-10-16T13:56:38;10.48;;;2.08;;
28335;SDS011;15592;53.656;7.276;2022-10-16T13:59:22;8.23;;;1.77;;
28335;SDS011;15592;53.656;7.276;2022-10-16T14:01:57;5.45;;;1.50;;
28335;SDS011;15592;53.656;7.276;2022-10-16T14:04:26;5.50;;;1.60;;
28335;SDS011;15592;53.656;7.276;2022-10-16T14:07:05;8.70;;;2.25;;
28335;SDS011;15592;53.656;7.276;2022-10-16T14:09:30;4.78;;;1.95;;
28335;SDS011;15592;53.656;7.276;2022-10-16T14:14:34;7.68;;;1.98;;
28335;SDS011;15592;53.656;7.276;2022-10-16T14:17:06;8.35;;;1.95;;
28335;SDS011;15592;53.656;7.276;2022-10-16T14:19:38;6.80;;;1.50;;
28335;SDS011;15592;53.656;7.276;2022-10-16T14:22:03;5.90;;;1.75;;
28335;SDS011;15592;53.656;7.276;2022-10-16T14:25:23;8.77;;;2.55;;
28335;SDS011;15592;53.656;7.276;2022-10-16T14:30:48;7.30;;;1.80;;
28335;SDS011;15592;53.656;7.276;2022-10-16T14:36:15;5.68;;;1.60;;
28335;SDS011;15592;53.656;7.276;2022-10-16T14:38:48;5.57;;;1.50;;
28335;SDS011;15592;53.656;7.276;2022-10-16T14:41:14;3.33;;;1.30;;
28335;SDS011;15592;53.656;7.276;2022-10-16T14:43:41;4.78;;;1.30;;
28335;SDS011;15592;53.656;7.276;2022-10-16T14:46:21;6.00;;;1.75;;
28335;SDS011;15592;53.656;7.276;2022-10-16T14:48:54;2.40;;;1.20;;
28335;SDS011;15592;53.656;7.276;2022-10-16T14:51:28;6.80;;;1.85;;
28335;SDS011;15592;53.656;7.276;2022-10-16T14:53:54;4.50;;;1.40;;
28335;SDS011;15592;53.656;7.276;2022-10-16T14:56:23;3.20;;;1.40;;
28335;SDS011;15592;53.656;7.276;2022-10-16T14:58:52;5.65;;;1.50;;
28335;SDS011;15592;53.656;7.276;2022-10-16T15:01:18;5.15;;;1.65;;
28335;SDS011;15592;53.656;7.276;2022-10-16T15:03:45;5.28;;;1.60;;
28335;SDS011;15592;53.656;7.276;2022-10-16T15:06:11;2.67;;;1.13;;
28335;SDS011;15592;53.656;7.276;2022-10-16T15:08:38;5.88;;;1.42;;
28335;SDS011;15592;53.656;7.276;2022-10-16T15:11:04;6.10;;;1.80;;
28335;SDS011;15592;53.656;7.276;2022-10-16T15:13:38;5.68;;;1.50;;
28335;SDS011;15592;53.656;7.276;2022-10-16T15:16:04;5.40;;;1.52;;
28335;SDS011;15592;53.656;7.276;2022-10-16T15:18:32;4.28;;;1.60;;
28335;SDS011;15592;53.656;7.276;2022-10-16T15:20:58;4.60;;;1.45;;
28335;SDS011;15592;53.656;7.276;2022-10-16T15:23:23;6.53;;;1.67;;
28335;SDS011;15592;53.656;7.276;2022-10-16T15:25:50;5.75;;;1.92;;
28335;SDS011;15592;53.656;7.276;2022-10-16T15:28:17;7.97;;;2.20;;
28335;SDS011;15592;53.656;7.276;2022-10-16T15:30:46;6.40;;;1.80;;
28335;SDS011;15592;53.656;7.276;2022-10-16T15:33:16;7.43;;;1.80;;
28335;SDS011;15592;53.656;7.276;2022-10-16T15:35:47;5.95;;;1.80;;
28335;SDS011;15592;53.656;7.276;2022-10-16T15:40:40;5.70;;;1.95;;
28335;SDS011;15592;53.656;7.276;2022-10-16T15:43:06;5.93;;;1.75;;
28335;SDS011;15592;53.656;7.276;2022-10-16T15:45:32;4.20;;;1.70;;
28335;SDS011;15592;53.656;7.276;2022-10-16T15:47:58;6.13;;;1.40;;
28335;SDS011;15592;53.656;7.276;2022-10-16T15:50:24;3.85;;;1.58;;
28335;SDS011;15592;53.656;7.276;2022-10-16T15:52:50;3.28;;;1.40;;
28335;SDS011;15592;53.656;7.276;2022-10-16T15:55:16;6.20;;;2.00;;
28335;SDS011;15592;53.656;7.276;2022-10-16T15:57:43;8.20;;;1.88;;
28335;SDS011;15592;53.656;7.276;2022-10-16T16:00:11;10.23;;;2.28;;
28335;SDS011;15592;53.656;7.276;2022-10-16T16:02:39;9.73;;;2.35;;
28335;SDS011;15592;53.656;7.276;2022-10-16T16:05:05;11.82;;;2.03;;
28335;SDS011;15592;53.656;7.276;2022-10-16T16:07:36;6.28;;;1.60;;
28335;SDS011;15592;53.656;7.276;2022-10-16T16:10:04;6.25;;;1.73;;
28335;SDS011;15592;53.656;7.276;2022-10-16T16:12:32;8.98;;;1.98;;
28335;SDS011;15592;53.656;7.276;2022-10-16T16:14:57;5.70;;;1.45;;
28335;SDS011;15592;53.656;7.276;2022-10-16T16:17:23;6.82;;;1.60;;
28335;SDS011;15592;53.656;7.276;2022-10-16T16:19:49;4.88;;;1.70;;
28335;SDS011;15592;53.656;7.276;2022-10-16T16:22:15;3.97;;;1.42;;
28335;SDS011;15592;53.656;7.276;2022-10-16T16:24:41;6.15;;;1.98;;
28335;SDS011;15592;53.656;7.276;2022-10-16T16:27:06;4.38;;;1.38;;
28335;SDS011;15592;53.656;7.276;2022-10-16T16:29:33;6.57;;;1.58;;
28335;SDS011;15592;53.656;7.276;2022-10-16T16:31:59;5.80;;;1.65;;
28335;SDS011;15592;53.656;7.276;2022-10-16T16:34:25;4.53;;;1.40;;
28335;SDS011;15592;53.656;7.276;2022-10-16T16:36:52;4.10;;;1.58;;
28335;SDS011;15592;53.656;7.276;2022-10-16T16:39:18;5.25;;;1.58;;
28335;SDS011;15592;53.656;7.276;2022-10-16T16:41:44;7.32;;;2.13;;
28335;SDS011;15592;53.656;7.276;2022-10-16T16:44:13;6.72;;;1.75;;
28335;SDS011;15592;53.656;7.276;2022-10-16T16:46:40;6.63;;;1.70;;
28335;SDS011;15592;53.656;7.276;2022-10-16T16:49:08;4.18;;;1.60;;
28335;SDS011;15592;53.656;7.276;2022-10-16T16:51:35;6.85;;;2.05;;
28335;SDS011;15592;53.656;7.276;2022-10-16T16:54:01;3.92;;;1.33;;
28335;SDS011;15592;53.656;7.276;2022-10-16T16:56:26;5.97;;;1.73;;
28335;SDS011;15592;53.656;7.276;2022-10-16T16:58:53;6.55;;;1.92;;
28335;SDS011;15592;53.656;7.276;2022-10-16T17:01:21;3.58;;;1.20;;
28335;SDS011;15592;53.656;7.276;2022-10-16T17:03:49;5.70;;;1.52;;
28335;SDS011;15592;53.656;7.276;2022-10-16T17:06:17;4.32;;;1.73;;
28335;SDS011;15592;53.656;7.276;2022-10-16T17:08:44;3.58;;;1.60;;
28335;SDS011;15592;53.656;7.276;2022-10-16T17:11:13;7.18;;;2.08;;
28335;SDS011;15592;53.656;7.276;2022-10-16T17:13:41;5.53;;;1.55;;
28335;SDS011;15592;53.656;7.276;2022-10-16T17:16:07;3.38;;;1.15;;
28335;SDS011;15592;53.656;7.276;2022-10-16T17:18:33;5.55;;;1.58;;
28335;SDS011;15592;53.656;7.276;2022-10-16T17:21:00;4.13;;;1.50;;
28335;SDS011;15592;53.656;7.276;2022-10-16T17:23:27;5.00;;;1.23;;
28335;SDS011;15592;53.656;7.276;2022-10-16T17:25:52;4.75;;;1.80;;
28335;SDS011;15592;53.656;7.276;2022-10-16T17:28:18;4.65;;;1.60;;
28335;SDS011;15592;53.656;7.276;2022-10-16T17:30:44;5.90;;;1.30;;